Time;durP1;ratioP1;P1;durP2;ratioP2;P2;SDS_P1;SDS_P2;PMS_P1;PMS_P2;Temp;Humidity;BMP_temperature;BMP_pressure;BME280_temperature;BME280_humidity;BME280_pressure;Samples;Min_cycle;Max_cycle;Signal;HPM_P1;HPM_P2
2021/03/19 00:00:38;;;;;;;2.27;0.97;;;8.70;99.90;;;;;;4889377;29;20252;-90
2021/03/19 00:03:10;;;;;;;1.93;0.80;;;8.50;99.90;;;;;;4916176;29;20299;-90
2021/03/19 00:05:41;;;;;;;4.03;0.90;;;8.40;99.90;;;;;;4870025;29;20199;-90
2021/03/19 00:08:13;;;;;;;2.40;1.10;;;8.20;99.90;;;;;;4881874;29;20242;-90
2021/03/19 00:10:44;;;;;;;2.63;0.87;;;8.10;99.90;;;;;;4876185;29;20661;-91
2021/03/19 00:13:17;;;;;;;2.37;0.70;;;8.00;99.90;;;;;;4872402;29;20306;-91
2021/03/19 00:15:50;;;;;;;1.40;0.77;;;7.80;99.90;;;;;;4858996;29;20231;-91
2021/03/19 00:18:21;;;;;;;0.93;0.70;;;7.80;99.90;;;;;;4847142;29;20219;-92
2021/03/19 00:20:53;;;;;;;1.10;0.70;;;7.60;99.90;;;;;;4847428;29;20299;-90
2021/03/19 00:23:25;;;;;;;3.83;0.90;;;7.60;99.90;;;;;;4857926;29;20206;-90
2021/03/19 00:25:55;;;;;;;2.03;0.87;;;7.50;99.90;;;;;;4864475;29;20250;-90
2021/03/19 00:28:26;;;;;;;2.50;0.93;;;7.60;99.90;;;;;;4864502;29;20271;-90
2021/03/19 00:30:57;;;;;;;1.57;0.90;;;7.50;99.90;;;;;;4851606;29;20574;-89
2021/03/19 00:33:31;;;;;;;1.60;1.20;;;7.50;99.90;;;;;;4856478;29;20212;-91
2021/03/19 00:36:07;;;;;;;2.90;0.90;;;7.50;99.90;;;;;;4849763;29;20211;-91
2021/03/19 00:38:39;;;;;;;3.23;1.10;;;7.50;99.90;;;;;;4859872;29;20238;-91
2021/03/19 00:41:11;;;;;;;2.53;1.13;;;7.50;99.90;;;;;;4853460;29;20298;-86
2021/03/19 00:43:42;;;;;;;2.07;0.80;;;7.60;99.90;;;;;;4861611;29;20581;-86
2021/03/19 00:46:13;;;;;;;4.77;1.10;;;7.50;99.90;;;;;;4863011;29;20319;-84
2021/03/19 00:48:43;;;;;;;4.37;1.40;;;7.50;99.90;;;;;;4859714;29;20297;-85
2021/03/19 00:51:14;;;;;;;2.67;1.40;;;7.50;99.90;;;;;;4862630;29;20334;-85
2021/03/19 00:53:45;;;;;;;3.07;1.90;;;7.50;99.90;;;;;;4862712;29;20584;-84
2021/03/19 00:56:16;;;;;;;2.33;1.50;;;7.50;99.90;;;;;;4878707;29;20215;-86
2021/03/19 00:58:46;;;;;;;3.73;1.40;;;7.50;99.90;;;;;;4866729;29;20213;-83
2021/03/19 01:01:16;;;;;;;3.00;1.27;;;7.60;99.90;;;;;;4865009;29;20242;-84
2021/03/19 01:03:47;;;;;;;1.70;1.00;;;7.50;99.90;;;;;;4859037;29;20216;-84
2021/03/19 01:06:18;;;;;;;3.00;1.23;;;7.60;99.90;;;;;;4852120;29;20215;-85
2021/03/19 01:08:51;;;;;;;1.27;1.13;;;7.70;99.90;;;;;;4855459;29;20271;-88
2021/03/19 01:11:22;;;;;;;2.77;1.70;;;7.70;99.90;;;;;;4851889;29;20228;-86
2021/03/19 01:13:54;;;;;;;1.83;1.20;;;7.70;99.90;;;;;;4848683;29;20216;-85
2021/03/19 01:16:25;;;;;;;2.70;1.17;;;7.70;99.90;;;;;;4857634;29;20215;-84
2021/03/19 01:18:57;;;;;;;3.10;1.30;;;7.70;99.90;;;;;;4856013;29;20219;-87
2021/03/19 01:21:27;;;;;;;2.10;0.90;;;7.70;99.90;;;;;;4851693;29;20251;-84
2021/03/19 01:24:00;;;;;;;3.73;1.20;;;7.70;99.90;;;;;;4858570;29;20211;-84
2021/03/19 01:26:30;;;;;;;3.77;1.30;;;7.70;99.90;;;;;;4862154;29;20679;-83
2021/03/19 01:29:01;;;;;;;2.80;1.80;;;7.70;99.90;;;;;;4862696;29;20262;-84
2021/03/19 01:31:32;;;;;;;2.87;1.17;;;7.70;99.90;;;;;;4861881;29;20310;-84
2021/03/19 01:34:05;;;;;;;1.10;1.00;;;7.70;99.90;;;;;;4850065;29;20264;-96
2021/03/19 01:36:36;;;;;;;3.73;1.30;;;7.70;99.90;;;;;;4853695;29;20207;-85
2021/03/19 01:39:09;;;;;;;3.57;1.20;;;7.70;99.90;;;;;;4861010;29;20255;-85
2021/03/19 01:41:43;;;;;;;2.57;1.17;;;7.70;99.90;;;;;;4860969;29;20226;-83
2021/03/19 01:44:15;;;;;;;2.13;1.10;;;7.70;99.90;;;;;;4858147;29;20545;-83
2021/03/19 01:47:22;;;;;;;0.90;0.80;;;7.60;99.90;;;;;;4856501;29;20295;-84
2021/03/19 01:50:30;;;;;;;1.73;1.10;;;7.60;99.90;;;;;;4844049;29;20223;-84
2021/03/19 01:53:50;;;;;;;2.50;1.10;;;7.60;99.90;;;;;;4855222;29;20221;-84
2021/03/19 01:56:57;;;;;;;2.23;1.00;;;7.50;99.90;;;;;;4861398;29;20596;-84
2021/03/19 02:00:04;;;;;;;4.53;1.30;;;7.50;99.90;;;;;;4863691;29;20207;-84
2021/03/19 02:03:11;;;;;;;3.07;1.07;;;7.60;99.90;;;;;;4869666;29;20206;-83
2021/03/19 02:06:18;;;;;;;3.07;1.30;;;7.50;99.90;;;;;;4860557;29;20594;-84
2021/03/19 02:09:27;;;;;;;1.83;1.00;;;7.50;99.90;;;;;;4879132;29;20578;-84
2021/03/19 02:12:34;;;;;;;2.80;1.13;;;7.40;99.90;;;;;;4862112;29;20220;-85
2021/03/19 02:15:41;;;;;;;2.00;1.20;;;7.40;99.90;;;;;;4865351;29;20207;-84
2021/03/19 02:18:48;;;;;;;3.40;1.20;;;7.50;99.90;;;;;;4839129;29;20573;-85
2021/03/19 02:21:55;;;;;;;3.53;1.03;;;7.50;99.90;;;;;;4862220;29;20234;-84
2021/03/19 02:25:02;;;;;;;2.50;0.90;;;7.40;99.90;;;;;;4885200;29;20216;-85
2021/03/19 02:28:09;;;;;;;3.70;0.73;;;7.50;99.90;;;;;;4885442;29;20238;-85
2021/03/19 02:31:13;;;;;;;1.30;0.83;;;7.40;99.90;;;;;;4860059;29;20215;-84
2021/03/19 02:33:56;;;;;;;1.80;0.73;;;7.40;99.90;;;;;;4876608;29;20211;-84
2021/03/19 02:36:31;;;;;;;2.80;0.93;;;7.40;99.90;;;;;;4856612;29;20238;-83
2021/03/19 02:39:10;;;;;;;1.90;0.70;;;7.40;99.90;;;;;;4893875;29;20241;-84
2021/03/19 02:41:41;;;;;;;2.60;0.87;;;7.30;99.90;;;;;;4866246;29;20664;-85
2021/03/19 02:44:12;;;;;;;1.87;0.73;;;7.40;99.90;;;;;;4862125;29;20215;-84
2021/03/19 02:46:43;;;;;;;1.30;0.80;;;7.30;99.90;;;;;;4864774;29;20219;-85
2021/03/19 02:49:14;;;;;;;0.70;0.70;;;7.30;99.90;;;;;;4861916;29;20213;-84
2021/03/19 02:51:43;;;;;;;4.70;0.80;;;7.20;99.90;;;;;;4871810;29;20542;-84
2021/03/19 02:54:14;;;;;;;5.13;0.70;;;7.30;99.90;;;;;;4862596;29;20255;-83
2021/03/19 02:56:44;;;;;;;1.50;0.77;;;7.20;99.90;;;;;;4863300;29;20241;-83
2021/03/19 02:59:15;;;;;;;2.40;0.70;;;7.30;99.90;;;;;;4851935;29;20207;-84
2021/03/19 03:01:46;;;;;;;1.10;0.70;;;7.20;99.90;;;;;;4847256;29;20260;-84
2021/03/19 03:04:19;;;;;;;2.00;0.70;;;7.20;99.90;;;;;;4855298;29;20215;-84
2021/03/19 03:06:52;;;;;;;2.10;0.70;;;7.10;99.90;;;;;;4866760;29;20211;-84
2021/03/19 03:09:24;;;;;;;3.47;1.00;;;7.10;99.90;;;;;;4864793;29;20242;-83
2021/03/19 03:11:56;;;;;;;3.97;0.80;;;7.10;99.90;;;;;;4870640;29;20559;-84
2021/03/19 03:14:28;;;;;;;0.87;0.60;;;7.10;99.90;;;;;;4865249;29;20214;-84
2021/03/19 03:17:00;;;;;;;2.70;0.90;;;7.10;99.90;;;;;;4864664;29;20225;-85
2021/03/19 03:19:33;;;;;;;1.43;0.60;;;7.10;99.90;;;;;;4863786;29;20376;-84
2021/03/19 03:22:04;;;;;;;0.93;0.60;;;7.10;99.90;;;;;;4860779;29;20207;-83
2021/03/19 03:24:35;;;;;;;0.97;0.60;;;7.10;99.90;;;;;;4865032;29;20218;-85
2021/03/19 03:27:08;;;;;;;1.60;0.77;;;7.00;99.90;;;;;;4867742;29;20217;-85
2021/03/19 03:29:40;;;;;;;1.87;0.70;;;7.10;99.90;;;;;;4864213;29;20247;-85
2021/03/19 03:32:11;;;;;;;1.20;0.80;;;7.00;99.90;;;;;;4864087;29;20279;-83
2021/03/19 03:34:43;;;;;;;2.77;0.80;;;7.00;99.90;;;;;;4861387;29;20232;-84
2021/03/19 03:37:13;;;;;;;2.10;0.67;;;7.10;99.90;;;;;;4847308;29;20602;-84
2021/03/19 03:39:44;;;;;;;1.10;0.80;;;7.10;99.90;;;;;;4865684;29;20278;-84
2021/03/19 03:42:14;;;;;;;2.57;0.60;;;7.10;99.90;;;;;;4872380;29;20218;-83
2021/03/19 03:44:45;;;;;;;1.43;0.80;;;7.20;99.90;;;;;;4863930;29;20243;-83
2021/03/19 03:47:16;;;;;;;1.73;0.70;;;7.10;99.90;;;;;;4858479;29;20207;-84
2021/03/19 03:49:48;;;;;;;1.43;0.77;;;7.10;99.90;;;;;;4854531;29;20666;-84
2021/03/19 03:52:18;;;;;;;1.80;0.90;;;7.00;99.90;;;;;;4865209;29;20213;-84
2021/03/19 03:54:50;;;;;;;0.73;0.50;;;7.00;99.90;;;;;;4862492;29;20215;-85
2021/03/19 03:57:21;;;;;;;1.30;0.70;;;7.00;99.90;;;;;;4864488;29;20285;-84
2021/03/19 03:59:54;;;;;;;1.23;0.63;;;7.00;99.90;;;;;;4862449;29;20300;-85
2021/03/19 04:02:28;;;;;;;2.10;0.60;;;6.90;99.90;;;;;;4867130;29;20210;-84
2021/03/19 04:05:01;;;;;;;1.37;0.80;;;7.00;99.90;;;;;;4862552;29;20651;-84
2021/03/19 04:07:31;;;;;;;1.00;0.50;;;6.90;99.90;;;;;;4860869;29;20238;-86
2021/03/19 04:10:02;;;;;;;0.97;0.70;;;6.90;99.90;;;;;;4862146;29;20219;-84
2021/03/19 04:12:33;;;;;;;1.20;0.60;;;6.90;99.90;;;;;;4871933;29;20221;-84
2021/03/19 04:15:06;;;;;;;1.53;0.40;;;6.90;99.90;;;;;;4862323;29;20211;-84
2021/03/19 04:17:37;;;;;;;1.43;0.70;;;6.90;99.90;;;;;;4862975;29;20279;-84
2021/03/19 04:20:13;;;;;;;0.50;0.40;;;6.90;99.90;;;;;;4868842;29;20230;-84
2021/03/19 04:22:43;;;;;;;1.83;0.50;;;6.90;99.90;;;;;;4843910;29;20633;-84
2021/03/19 04:25:15;;;;;;;2.20;0.60;;;6.90;99.90;;;;;;4857809;29;20552;-84
2021/03/19 04:27:49;;;;;;;0.80;0.50;;;6.80;99.90;;;;;;4866339;29;20202;-85
2021/03/19 04:30:23;;;;;;;1.90;0.50;;;6.80;99.90;;;;;;4866814;29;20647;-84
2021/03/19 04:32:59;;;;;;;1.73;0.50;;;6.80;99.90;;;;;;4856459;29;20840;-84
2021/03/19 04:35:33;;;;;;;1.37;0.47;;;6.80;99.90;;;;;;4864025;29;20759;-85
2021/03/19 04:38:09;;;;;;;1.53;0.40;;;6.80;99.90;;;;;;4867030;29;20314;-86
2021/03/19 04:40:43;;;;;;;0.70;0.50;;;6.70;99.90;;;;;;4867440;29;20251;-84
2021/03/19 04:43:14;;;;;;;2.43;0.60;;;6.70;99.90;;;;;;4883862;29;20217;-85
2021/03/19 04:45:46;;;;;;;0.77;0.47;;;6.70;99.90;;;;;;4882688;29;20176;-84
2021/03/19 04:48:17;;;;;;;0.93;0.40;;;6.70;99.90;;;;;;4881643;29;20203;-85
2021/03/19 04:50:50;;;;;;;0.70;0.40;;;6.70;99.90;;;;;;4878292;29;20269;-83
2021/03/19 04:53:21;;;;;;;0.77;0.30;;;6.70;99.90;;;;;;4870169;29;20282;-85
2021/03/19 04:55:52;;;;;;;0.87;0.47;;;6.70;99.90;;;;;;4863077;29;20215;-83
2021/03/19 04:58:23;;;;;;;2.50;0.60;;;6.70;99.90;;;;;;4888112;29;20211;-83
2021/03/19 05:00:54;;;;;;;0.70;0.40;;;6.70;99.90;;;;;;4844656;29;20703;-84
2021/03/19 05:03:25;;;;;;;1.40;0.60;;;6.60;99.90;;;;;;4845863;29;20209;-84
2021/03/19 05:05:59;;;;;;;2.43;0.70;;;6.60;99.90;;;;;;4859407;29;20225;-82
2021/03/19 05:08:32;;;;;;;0.80;0.50;;;6.60;99.90;;;;;;4857405;29;20244;-83
2021/03/19 05:11:03;;;;;;;2.07;0.60;;;6.70;99.90;;;;;;4849526;29;20204;-83
2021/03/19 05:13:34;;;;;;;0.80;0.60;;;6.70;99.90;;;;;;4860084;29;20215;-84
2021/03/19 05:16:05;;;;;;;0.87;0.60;;;6.60;99.90;;;;;;4859121;29;20211;-84
2021/03/19 05:18:36;;;;;;;0.90;0.60;;;6.60;99.90;;;;;;4860595;29;20212;-83
2021/03/19 05:21:08;;;;;;;1.53;0.60;;;6.60;99.90;;;;;;4871702;29;20254;-84
2021/03/19 05:23:41;;;;;;;1.90;1.00;;;6.50;99.90;;;;;;4866958;29;20207;-83
2021/03/19 05:29:00;;;;;;;1.77;1.47;;;6.50;99.90;;;;;;4874258;29;20241;-84
2021/03/19 05:31:30;;;;;;;1.20;1.00;;;6.50;99.90;;;;;;4860688;29;20243;-84
2021/03/19 05:34:00;;;;;;;3.07;1.10;;;6.60;99.90;;;;;;4860781;29;20254;-84
2021/03/19 05:36:35;;;;;;;1.53;1.10;;;6.60;99.90;;;;;;4859827;29;20266;-84
2021/03/19 05:39:07;;;;;;;1.73;1.30;;;6.60;99.90;;;;;;4857831;29;20259;-85
2021/03/19 05:41:41;;;;;;;1.57;1.23;;;6.60;99.90;;;;;;4890066;29;20231;-84
2021/03/19 05:44:16;;;;;;;2.10;1.23;;;6.60;99.90;;;;;;4847901;29;20211;-84
2021/03/19 05:46:50;;;;;;;4.10;1.00;;;6.60;99.90;;;;;;4860807;29;20317;-85
2021/03/19 05:49:24;;;;;;;2.63;0.87;;;6.60;99.90;;;;;;4859339;29;20561;-84
2021/03/19 05:51:58;;;;;;;2.17;0.80;;;6.60;99.90;;;;;;4859008;29;20263;-83
2021/03/19 05:54:44;;;;;;;2.30;1.00;;;6.50;99.90;;;;;;4860227;29;20210;-84
2021/03/19 05:57:23;;;;;;;1.20;0.93;;;6.50;99.90;;;;;;4525797;29;10001512;-83
2021/03/19 05:59:57;;;;;;;0.87;0.70;;;6.40;99.90;;;;;;4857626;29;20368;-83
2021/03/19 06:02:31;;;;;;;2.47;0.70;;;6.30;99.90;;;;;;4850926;29;20585;-82
2021/03/19 06:05:13;;;;;;;1.23;0.83;;;6.10;99.90;;;;;;4859785;29;20301;-81
2021/03/19 06:07:48;;;;;;;1.43;0.60;;;6.00;99.90;;;;;;4857852;29;20207;-81
2021/03/19 06:10:25;;;;;;;1.80;0.70;;;6.00;99.90;;;;;;4849720;29;20630;-84
2021/03/19 06:12:58;;;;;;;1.90;0.80;;;5.90;99.90;;;;;;4858147;29;20683;-83
2021/03/19 06:15:32;;;;;;;0.70;0.57;;;5.80;99.90;;;;;;4841490;29;20220;-83
2021/03/19 06:18:03;;;;;;;1.90;0.70;;;5.70;99.90;;;;;;4843109;29;20222;-84
2021/03/19 06:20:34;;;;;;;0.93;0.70;;;5.60;99.90;;;;;;4860314;29;20366;-84
2021/03/19 06:23:17;;;;;;;1.50;0.70;;;5.60;99.90;;;;;;4862052;29;20272;-83
2021/03/19 06:26:00;;;;;;;1.53;0.87;;;5.50;99.90;;;;;;4866483;29;20263;-84
2021/03/19 06:28:35;;;;;;;1.83;0.80;;;5.40;99.90;;;;;;4856026;29;20207;-83
2021/03/19 06:31:28;;;;;;;4.33;0.67;;;5.40;99.90;;;;;;4862068;29;20210;-83
2021/03/19 06:34:14;;;;;;;1.00;0.80;;;5.30;99.90;;;;;;4861113;29;20238;-83
2021/03/19 06:36:55;;;;;;;2.00;0.87;;;5.30;99.90;;;;;;4860320;29;20660;-83
2021/03/19 06:39:28;;;;;;;1.63;0.70;;;5.30;99.90;;;;;;4861680;29;20215;-83
2021/03/19 06:42:13;;;;;;;2.30;0.83;;;5.30;99.90;;;;;;4863850;29;20325;-83
2021/03/19 06:44:43;;;;;;;0.77;0.63;;;5.30;99.90;;;;;;4864326;29;20203;-83
2021/03/19 06:47:36;;;;;;;1.50;0.53;;;5.20;99.90;;;;;;4864682;29;20303;-83
2021/03/19 06:50:08;;;;;;;2.77;0.87;;;5.20;99.90;;;;;;4863201;29;20321;-83
2021/03/19 06:52:39;;;;;;;2.60;0.80;;;5.20;99.90;;;;;;4864971;29;20251;-82
2021/03/19 06:55:38;;;;;;;2.70;0.60;;;5.20;99.90;;;;;;4870157;29;20214;-83
2021/03/19 06:58:08;;;;;;;1.83;0.83;;;5.10;99.90;;;;;;4877161;29;20192;-83
2021/03/19 07:00:42;;;;;;;2.50;0.80;;;5.10;99.90;;;;;;4898788;29;20231;-84
2021/03/19 07:03:42;;;;;;;1.60;0.80;;;5.10;99.90;;;;;;4870409;29;20267;-82
2021/03/19 07:06:39;;;;;;;2.13;0.53;;;5.00;99.90;;;;;;4859380;29;20265;-82
2021/03/19 07:09:18;;;;;;;1.37;0.70;;;5.10;99.90;;;;;;4847849;29;20267;-82
2021/03/19 07:12:16;;;;;;;2.53;0.67;;;5.00;99.90;;;;;;4859994;29;20210;-82
2021/03/19 07:14:59;;;;;;;6.03;0.73;;;5.00;99.90;;;;;;4879357;29;20231;-83
2021/03/19 07:17:55;;;;;;;0.83;0.60;;;5.00;99.90;;;;;;4881288;29;20210;-83
2021/03/19 07:21:05;;;;;;;2.33;0.80;;;5.00;99.90;;;;;;4862521;29;20243;-84
2021/03/19 07:23:47;;;;;;;1.00;0.53;;;5.00;99.90;;;;;;4865148;29;20232;-83
2021/03/19 07:26:29;;;;;;;1.43;0.50;;;5.00;99.90;;;;;;4862430;29;20222;-84
2021/03/19 07:29:36;;;;;;;2.70;0.57;;;5.00;99.90;;;;;;4874191;29;20231;-83
2021/03/19 07:32:38;;;;;;;1.07;0.60;;;5.00;99.90;;;;;;4880002;29;20401;-87
2021/03/19 07:35:43;;;;;;;1.37;0.60;;;5.00;99.90;;;;;;4871896;29;20225;-84
2021/03/19 07:38:55;;;;;;;2.30;0.60;;;5.00;99.90;;;;;;4874444;29;20215;-83
2021/03/19 07:41:36;;;;;;;1.00;0.50;;;5.00;99.90;;;;;;4863439;29;20253;-83
2021/03/19 07:44:38;;;;;;;0.77;0.60;;;5.00;99.90;;;;;;4863063;29;20635;-84
2021/03/19 07:47:47;;;;;;;1.20;0.50;;;4.90;99.90;;;;;;4841313;29;20210;-84
2021/03/19 07:50:34;;;;;;;1.00;0.60;;;4.90;99.90;;;;;;4862092;29;20322;-82
2021/03/19 07:53:39;;;;;;;1.17;0.60;;;4.90;99.90;;;;;;4862186;29;20218;-83
2021/03/19 07:56:22;;;;;;;4.43;0.70;;;4.80;99.90;;;;;;4854203;29;20215;-83
2021/03/19 07:59:05;;;;;;;3.20;0.80;;;4.80;99.90;;;;;;4861542;29;20298;-83
2021/03/19 08:01:43;;;;;;;3.40;1.33;;;4.80;99.90;;;;;;4860886;29;20265;-83
2021/03/19 08:04:36;;;;;;;1.17;0.97;;;4.80;99.90;;;;;;4861187;29;20679;-82
2021/03/19 08:07:22;;;;;;;85.17;5.00;;;4.80;99.90;;;;;;4859921;29;20270;-83
2021/03/19 08:10:03;;;;;;;0.90;0.90;;;4.70;99.90;;;;;;4860520;29;20218;-83
2021/03/19 08:12:38;;;;;;;2.47;1.20;;;4.70;99.90;;;;;;4861070;29;20290;-82
2021/03/19 08:15:25;;;;;;;1.40;1.10;;;4.70;99.90;;;;;;4860434;29;20215;-83
2021/03/19 08:18:04;;;;;;;0.70;0.70;;;4.60;99.90;;;;;;4858514;29;20306;-83
2021/03/19 08:20:47;;;;;;;2.60;0.90;;;4.60;99.90;;;;;;4860470;29;20231;-83
2021/03/19 08:23:30;;;;;;;0.80;0.80;;;4.60;99.90;;;;;;4848819;29;20200;-84
2021/03/19 08:26:01;;;;;;;1.00;0.80;;;4.60;99.90;;;;;;4842361;29;20250;-83
2021/03/19 08:28:39;;;;;;;2.13;1.07;;;4.50;99.90;;;;;;4843459;29;20211;-84
2021/03/19 08:31:24;;;;;;;1.57;0.80;;;4.50;99.90;;;;;;4861012;29;20231;-83
2021/03/19 08:34:10;;;;;;;1.57;0.80;;;4.50;99.90;;;;;;4861200;29;20222;-83
2021/03/19 08:36:44;;;;;;;1.80;0.80;;;4.40;99.90;;;;;;4861056;29;20234;-83
2021/03/19 08:39:25;;;;;;;1.27;0.80;;;4.40;99.90;;;;;;4859834;29;20644;-82
2021/03/19 08:42:04;;;;;;;1.20;0.80;;;4.40;99.90;;;;;;4842611;29;20239;-82
2021/03/19 08:44:37;;;;;;;3.13;1.20;;;4.40;99.90;;;;;;4842582;29;20585;-83
2021/03/19 08:47:20;;;;;;;1.00;0.70;;;4.40;99.90;;;;;;4842727;29;20657;-83
2021/03/19 08:49:54;;;;;;;1.20;1.00;;;4.40;99.90;;;;;;4846538;29;20672;-82
2021/03/19 08:52:32;;;;;;;1.17;0.83;;;4.40;99.90;;;;;;4840664;29;20222;-81
2021/03/19 08:55:27;;;;;;;0.70;0.70;;;4.30;99.90;;;;;;4869630;29;20215;-82
2021/03/19 08:58:04;;;;;;;1.27;0.60;;;4.30;99.90;;;;;;4848217;29;20219;-82
2021/03/19 09:00:55;;;;;;;0.83;0.73;;;4.30;99.90;;;;;;4860963;29;20211;-81
2021/03/19 09:04:00;;;;;;;1.97;0.90;;;4.30;99.90;;;;;;4860666;29;20204;-83
2021/03/19 09:07:00;;;;;;;0.90;0.70;;;4.20;99.90;;;;;;4853207;29;20275;-82
2021/03/19 09:09:41;;;;;;;1.10;0.80;;;4.20;99.90;;;;;;4894377;29;20211;-83
2021/03/19 09:12:16;;;;;;;1.37;0.90;;;4.10;99.90;;;;;;4899266;29;20210;-83
2021/03/19 09:14:51;;;;;;;1.00;0.80;;;4.10;99.90;;;;;;4880099;29;20270;-82
2021/03/19 09:17:53;;;;;;;2.37;1.00;;;4.00;99.90;;;;;;4863269;29;20218;-82
2021/03/19 09:20:59;;;;;;;2.50;1.43;;;4.00;99.90;;;;;;4851011;29;20270;-83
2021/03/19 09:23:48;;;;;;;2.23;1.47;;;4.00;99.90;;;;;;4860906;29;20259;-81
2021/03/19 09:26:44;;;;;;;1.97;1.27;;;4.10;99.90;;;;;;4841256;29;20242;-83
2021/03/19 09:29:44;;;;;;;2.67;1.40;;;4.10;99.90;;;;;;4851842;29;20222;-82
2021/03/19 09:32:42;;;;;;;1.87;1.40;;;4.10;99.90;;;;;;4857214;29;20275;-82
2021/03/19 09:35:38;;;;;;;2.00;1.30;;;4.10;99.90;;;;;;4859343;29;20249;-82
2021/03/19 09:38:35;;;;;;;2.40;1.23;;;4.00;99.90;;;;;;4858394;29;20218;-82
2021/03/19 09:41:10;;;;;;;1.00;0.90;;;4.00;99.90;;;;;;4859031;29;20234;-82
2021/03/19 09:43:49;;;;;;;1.13;0.90;;;4.00;99.90;;;;;;4858621;29;20214;-84
2021/03/19 09:46:24;;;;;;;1.80;0.93;;;4.00;99.90;;;;;;4859133;29;20207;-83
2021/03/19 09:48:59;;;;;;;2.03;0.80;;;4.00;99.90;;;;;;4858379;29;20210;-82
2021/03/19 09:51:41;;;;;;;1.10;0.77;;;4.00;99.90;;;;;;4864463;29;20210;-82
2021/03/19 09:54:26;;;;;;;1.77;0.70;;;4.00;99.90;;;;;;4877951;29;20266;-83
2021/03/19 09:57:13;;;;;;;1.53;0.70;;;4.00;99.90;;;;;;4878399;29;20210;-82
2021/03/19 09:59:46;;;;;;;0.87;0.47;;;4.00;99.90;;;;;;4872231;29;20265;-82
2021/03/19 10:02:30;;;;;;;2.27;0.60;;;4.10;99.90;;;;;;4858485;29;20243;-82
2021/03/19 10:05:12;;;;;;;0.80;0.60;;;4.10;99.90;;;;;;4865945;29;20262;-81
2021/03/19 10:07:50;;;;;;;1.07;0.60;;;4.10;99.90;;;;;;4878671;29;20214;-82
2021/03/19 10:10:28;;;;;;;0.63;0.63;;;4.10;99.90;;;;;;4859749;29;20290;-81
2021/03/19 10:13:17;;;;;;;3.27;0.80;;;4.20;99.90;;;;;;4860245;29;20207;-82
2021/03/19 10:15:52;;;;;;;2.77;0.70;;;4.20;99.90;;;;;;4863866;29;20234;-81
2021/03/19 10:18:29;;;;;;;0.53;0.50;;;4.20;99.90;;;;;;4863349;29;20287;-82
2021/03/19 10:21:02;;;;;;;1.03;0.50;;;4.20;99.90;;;;;;4870455;29;20246;-83
2021/03/19 10:23:34;;;;;;;0.53;0.43;;;4.30;99.90;;;;;;4883949;29;20218;-82
2021/03/19 10:26:17;;;;;;;0.57;0.40;;;4.30;99.90;;;;;;4880395;29;20710;-82
2021/03/19 10:28:52;;;;;;;1.60;0.60;;;4.30;99.90;;;;;;4866512;29;20254;-82
2021/03/19 10:31:28;;;;;;;0.30;0.30;;;4.30;99.90;;;;;;4885945;29;20202;-83
2021/03/19 10:34:03;;;;;;;0.73;0.37;;;4.40;99.90;;;;;;4885724;29;20262;-83
2021/03/19 10:36:41;;;;;;;0.83;0.50;;;4.40;99.90;;;;;;4868163;29;20214;-82
2021/03/19 10:39:20;;;;;;;0.90;0.50;;;4.40;99.90;;;;;;4862706;29;20224;-82
2021/03/19 10:41:55;;;;;;;1.30;0.50;;;4.40;99.90;;;;;;4862631;29;20254;-82
2021/03/19 10:44:33;;;;;;;3.00;0.63;;;4.40;99.90;;;;;;4853473;29;20641;-83
2021/03/19 10:47:13;;;;;;;1.90;0.63;;;4.50;99.90;;;;;;4844238;29;20207;-82
2021/03/19 10:49:48;;;;;;;2.17;0.73;;;4.50;99.90;;;;;;4845536;29;20239;-83
2021/03/19 10:52:24;;;;;;;1.10;0.60;;;4.50;99.90;;;;;;4863612;29;20262;-83
2021/03/19 10:55:00;;;;;;;1.53;0.50;;;4.60;99.90;;;;;;4861618;29;20255;-82
2021/03/19 10:57:36;;;;;;;0.80;0.60;;;4.60;99.90;;;;;;4863833;29;20262;-81
2021/03/19 11:00:35;;;;;;;3.63;0.47;;;4.60;99.90;;;;;;4862807;29;20207;-82
2021/03/19 11:03:08;;;;;;;0.70;0.40;;;4.70;99.90;;;;;;4892368;29;20218;-82
2021/03/19 11:05:56;;;;;;;1.43;0.40;;;4.80;99.90;;;;;;4874791;29;20690;-82
2021/03/19 11:08:27;;;;;;;0.33;0.27;;;4.80;99.90;;;;;;4874972;29;20231;-82
2021/03/19 11:10:58;;;;;;;1.27;0.53;;;4.90;99.90;;;;;;4862913;29;20219;-83
2021/03/19 11:13:31;;;;;;;2.30;0.50;;;4.90;99.90;;;;;;4863413;29;20244;-82
2021/03/19 11:16:04;;;;;;;0.70;0.30;;;4.90;99.90;;;;;;4863477;29;20211;-82
2021/03/19 11:18:38;;;;;;;1.10;0.53;;;5.00;99.90;;;;;;4865551;29;20214;-83
2021/03/19 11:21:31;;;;;;;0.70;0.37;;;5.00;99.90;;;;;;4861858;29;20215;-82
2021/03/19 11:24:07;;;;;;;0.50;0.50;;;5.10;99.90;;;;;;4865614;29;20207;-83
2021/03/19 11:26:38;;;;;;;1.60;0.40;;;5.10;99.90;;;;;;4857481;29;20239;-83
2021/03/19 11:29:22;;;;;;;1.63;0.70;;;5.10;99.90;;;;;;4859222;29;20519;-82
2021/03/19 11:32:27;;;;;;;1.07;0.40;;;5.20;99.90;;;;;;4863737;29;20225;-83
2021/03/19 11:34:59;;;;;;;1.37;0.30;;;5.20;99.90;;;;;;4862046;29;20217;-83
2021/03/19 11:37:40;;;;;;;0.53;0.40;;;5.30;99.90;;;;;;4871524;29;20652;-82
2021/03/19 11:40:18;;;;;;;2.53;0.40;;;5.20;99.90;;;;;;4861216;29;20215;-83
2021/03/19 11:42:51;;;;;;;1.70;0.53;;;5.30;99.90;;;;;;4890570;29;20238;-83
2021/03/19 11:45:24;;;;;;;0.33;0.20;;;5.30;99.90;;;;;;4861652;29;20230;-83
2021/03/19 11:48:24;;;;;;;3.07;0.50;;;5.50;99.90;;;;;;4861645;29;20221;-85
2021/03/19 11:51:08;;;;;;;0.47;0.40;;;6.00;99.90;;;;;;4862151;29;20229;-84
2021/03/19 11:53:39;;;;;;;2.77;0.47;;;6.10;99.90;;;;;;4866255;29;20691;-81
2021/03/19 11:56:14;;;;;;;0.40;0.30;;;6.10;99.90;;;;;;4861373;29;20267;-82
2021/03/19 11:58:45;;;;;;;0.87;0.37;;;6.20;99.90;;;;;;4860539;29;20616;-82
2021/03/19 12:01:16;;;;;;;0.50;0.27;;;6.40;99.90;;;;;;4861301;29;20267;-82
2021/03/19 12:03:51;;;;;;;1.13;0.30;;;6.70;99.90;;;;;;4862454;29;20925;-83
2021/03/19 12:06:24;;;;;;;1.50;0.50;;;6.80;99.90;;;;;;4879029;29;20305;-80
2021/03/19 12:08:55;;;;;;;0.33;0.30;;;6.70;99.90;;;;;;4908716;29;20221;-83
2021/03/19 12:11:32;;;;;;;0.90;0.30;;;6.70;99.90;;;;;;4879099;29;20223;-83
2021/03/19 12:14:04;;;;;;;0.63;0.40;;;6.70;99.90;;;;;;4862621;29;20215;-84
2021/03/19 12:16:35;;;;;;;0.37;0.30;;;6.80;99.90;;;;;;4862631;29;20215;-82
2021/03/19 12:19:08;;;;;;;0.20;0.20;;;6.70;99.90;;;;;;4860316;29;20246;-82
2021/03/19 12:21:38;;;;;;;1.90;0.40;;;6.60;99.90;;;;;;4854164;29;20339;-83
2021/03/19 12:24:09;;;;;;;0.80;0.27;;;6.80;99.90;;;;;;4843720;29;20320;-84
2021/03/19 12:26:39;;;;;;;1.83;0.60;;;6.80;99.90;;;;;;4843659;29;20239;-82
2021/03/19 12:29:12;;;;;;;0.50;0.30;;;6.80;99.90;;;;;;4843388;29;20664;-83
2021/03/19 12:31:42;;;;;;;0.50;0.30;;;6.80;99.90;;;;;;4842868;29;20251;-82
2021/03/19 12:34:14;;;;;;;0.57;0.30;;;6.70;99.90;;;;;;4842639;29;20211;-83
2021/03/19 12:36:45;;;;;;;0.13;0.13;;;6.70;99.90;;;;;;4846151;29;20211;-83
2021/03/19 12:39:16;;;;;;;0.70;0.30;;;6.80;99.90;;;;;;4851397;29;20212;-83
2021/03/19 12:41:46;;;;;;;0.93;0.43;;;6.80;99.90;;;;;;4842572;29;20295;-84
2021/03/19 12:44:18;;;;;;;0.60;0.20;;;6.80;99.90;;;;;;4841682;29;20745;-83
2021/03/19 12:46:49;;;;;;;1.03;0.40;;;6.90;99.90;;;;;;4841858;29;20212;-83
2021/03/19 12:49:22;;;;;;;1.50;0.50;;;6.90;99.90;;;;;;4859049;29;20223;-84
2021/03/19 12:51:53;;;;;;;2.30;0.50;;;7.00;99.90;;;;;;4861313;29;20217;-83
2021/03/19 12:54:25;;;;;;;2.10;0.50;;;7.00;99.90;;;;;;4860677;29;20215;-84
2021/03/19 12:56:57;;;;;;;0.60;0.33;;;6.90;99.90;;;;;;4859438;29;20219;-84
2021/03/19 12:59:27;;;;;;;1.43;0.40;;;7.00;99.90;;;;;;4860903;29;20271;-85
2021/03/19 13:01:58;;;;;;;2.30;1.27;;;7.00;99.90;;;;;;4861287;29;20295;-84
2021/03/19 13:04:31;;;;;;;0.77;0.23;;;7.20;99.90;;;;;;4860969;29;20306;-83
2021/03/19 13:07:07;;;;;;;1.50;0.30;;;7.30;99.90;;;;;;4857700;29;20214;-83
2021/03/19 13:09:38;;;;;;;1.10;0.50;;;7.30;99.90;;;;;;4855453;29;20293;-81
2021/03/19 13:12:10;;;;;;;1.80;1.03;;;7.20;99.90;;;;;;4860717;29;20250;-84
2021/03/19 13:14:57;;;;;;;1.33;0.60;;;7.20;99.90;;;;;;4859728;29;20294;-84
2021/03/19 13:17:27;;;;;;;2.13;0.50;;;7.20;99.90;;;;;;4860096;29;20257;-83
2021/03/19 13:19:59;;;;;;;3.53;0.50;;;7.10;99.90;;;;;;4859742;29;20212;-83
2021/03/19 13:22:29;;;;;;;0.60;0.40;;;7.10;99.90;;;;;;4859761;29;20310;-83
2021/03/19 13:25:00;;;;;;;2.13;0.60;;;7.00;99.90;;;;;;4860505;29;20579;-82
2021/03/19 13:27:31;;;;;;;1.30;0.57;;;7.00;99.90;;;;;;4862395;29;20306;-83
2021/03/19 13:30:02;;;;;;;1.47;0.43;;;6.80;99.90;;;;;;4861497;29;20215;-83
2021/03/19 13:32:32;;;;;;;2.17;0.43;;;6.80;99.90;;;;;;4880474;29;20208;-82
2021/03/19 13:35:18;;;;;;;0.87;0.40;;;6.80;99.90;;;;;;4882470;29;20214;-82
2021/03/19 13:37:49;;;;;;;1.57;0.53;;;6.80;99.90;;;;;;4879253;29;20239;-83
2021/03/19 13:40:23;;;;;;;2.30;0.53;;;6.80;99.90;;;;;;4876986;29;20199;-82
2021/03/19 13:42:54;;;;;;;1.10;0.57;;;6.80;99.90;;;;;;4870864;29;20278;-82
2021/03/19 13:45:25;;;;;;;1.10;0.37;;;6.90;99.90;;;;;;4860616;29;20217;-82
2021/03/19 13:48:00;;;;;;;2.77;0.50;;;6.90;99.90;;;;;;4886648;29;20208;-82
2021/03/19 13:50:32;;;;;;;2.33;0.60;;;7.00;99.90;;;;;;4865455;29;20683;-82
2021/03/19 13:53:05;;;;;;;2.33;0.70;;;7.00;99.90;;;;;;4882994;29;20258;-82
2021/03/19 13:55:37;;;;;;;2.57;0.53;;;7.00;99.90;;;;;;4886040;29;20239;-82
2021/03/19 13:58:08;;;;;;;1.50;0.60;;;6.90;99.90;;;;;;4883375;29;20217;-82